createdAt,value
2019-04-04T00:02:29.923Z,7.00
2019-04-04T00:05:14.892Z,7.00
2019-04-04T00:08:00.593Z,7.00
2019-04-04T00:10:45.783Z,6.90
2019-04-04T00:13:30.804Z,6.90
2019-04-04T00:16:16.834Z,6.80
2019-04-04T00:19:01.831Z,6.80
2019-04-04T00:21:46.863Z,6.80
2019-04-04T00:24:31.496Z,6.70
2019-04-04T00:27:16.029Z,6.70
2019-04-04T00:30:01.214Z,6.70
2019-04-04T00:32:46.064Z,6.70
2019-04-04T00:35:31.086Z,6.60
2019-04-04T00:38:16.535Z,6.60
2019-04-04T00:41:02.017Z,6.40
2019-04-04T00:43:46.753Z,6.40
2019-04-04T00:46:31.751Z,6.40
2019-04-04T00:49:16.414Z,6.40
2019-04-04T00:52:01.417Z,6.40
2019-04-04T00:54:46.523Z,6.40
2019-04-04T00:57:31.474Z,6.30
2019-04-04T01:00:16.219Z,6.30
2019-04-04T01:03:00.849Z,6.20
2019-04-04T01:05:45.378Z,6.20
2019-04-04T01:08:29.878Z,6.10
2019-04-04T01:11:14.437Z,6.00
2019-04-04T01:13:59.064Z,5.90
2019-04-04T01:16:44.166Z,5.80
2019-04-04T01:19:28.863Z,5.80
2019-04-04T01:22:13.979Z,5.80
2019-04-04T01:24:59.021Z,5.80
2019-04-04T01:27:45.460Z,5.70
2019-04-04T01:30:30.049Z,5.80
2019-04-04T01:33:14.665Z,5.80
2019-04-04T01:35:59.753Z,5.80
2019-04-04T01:38:44.507Z,5.80
2019-04-04T01:41:29.338Z,5.70
2019-04-04T01:44:14.287Z,5.60
2019-04-04T01:46:59.001Z,5.60
2019-04-04T01:49:44.035Z,5.50
2019-04-04T01:52:28.875Z,5.50
2019-04-04T01:55:13.665Z,5.60
2019-04-04T01:57:58.582Z,5.70
2019-04-04T02:00:45.809Z,5.70
2019-04-04T02:03:30.953Z,5.80
2019-04-04T02:06:15.742Z,5.80
2019-04-04T02:09:02.524Z,5.80
2019-04-04T02:11:46.951Z,5.80
2019-04-04T02:14:32.153Z,5.80
2019-04-04T02:17:17.274Z,5.80
2019-04-04T02:20:03.611Z,5.70
2019-04-04T02:22:48.512Z,5.70
2019-04-04T02:25:34.200Z,5.70
2019-04-04T02:28:19.677Z,5.70
2019-04-04T02:31:05.656Z,5.70
2019-04-04T02:33:50.688Z,5.70
2019-04-04T02:36:35.814Z,5.70
2019-04-04T02:39:20.696Z,5.70
2019-04-04T02:42:06.246Z,5.70
2019-04-04T02:44:51.124Z,5.80
2019-04-04T02:47:35.914Z,5.70
2019-04-04T02:50:20.851Z,5.60
2019-04-04T02:53:05.931Z,5.60
2019-04-04T02:55:51.113Z,5.50
2019-04-04T02:58:36.257Z,5.50
2019-04-04T03:01:21.308Z,5.50
2019-04-04T03:04:06.503Z,5.50
2019-04-04T03:06:51.481Z,5.40
2019-04-04T03:09:36.627Z,5.30
2019-04-04T03:12:25.700Z,5.40
2019-04-04T03:15:10.045Z,5.30
2019-04-04T03:17:55.121Z,5.40
2019-04-04T03:20:40.811Z,5.40
2019-04-04T03:23:25.754Z,5.40
2019-04-04T03:26:10.982Z,5.50
2019-04-04T03:28:56.078Z,5.50
2019-04-04T03:31:40.670Z,5.40
2019-04-04T03:34:25.798Z,5.30
2019-04-04T03:37:12.392Z,5.40
2019-04-04T03:39:57.346Z,5.40
2019-04-04T03:42:44.271Z,5.40
2019-04-04T03:45:29.032Z,5.40
2019-04-04T03:48:17.415Z,5.30
2019-04-04T03:51:04.882Z,5.20
2019-04-04T03:53:50.293Z,5.10
2019-04-04T03:56:39.155Z,5.10
2019-04-04T03:59:21.334Z,5.10
2019-04-04T04:02:08.834Z,5.10
2019-04-04T04:04:53.581Z,5.10
2019-04-04T04:07:38.165Z,5.10
2019-04-04T04:10:23.013Z,5.10
2019-04-04T04:13:07.546Z,5.00
2019-04-04T04:15:52.572Z,5.10
2019-04-04T04:18:36.969Z,5.10
2019-04-04T04:21:21.637Z,5.20
2019-04-04T04:24:06.158Z,5.10
2019-04-04T04:26:51.062Z,5.10
2019-04-04T04:29:35.855Z,5.10
2019-04-04T04:32:21.742Z,5.20
2019-04-04T04:35:08.977Z,5.20
2019-04-04T04:37:54.046Z,5.30
2019-04-04T04:40:38.842Z,5.30
2019-04-04T04:43:23.684Z,5.30
2019-04-04T04:46:08.548Z,5.20
2019-04-04T04:48:53.450Z,5.10
2019-04-04T04:51:38.166Z,5.10
2019-04-04T04:54:22.817Z,5.10
2019-04-04T04:57:08.306Z,5.10
2019-04-04T04:59:53.322Z,5.10
2019-04-04T05:02:37.928Z,5.00
2019-04-04T05:05:23.231Z,5.10
2019-04-04T05:08:10.083Z,5.10
2019-04-04T05:10:54.660Z,5.00
2019-04-04T05:13:39.692Z,5.10
2019-04-04T05:16:24.423Z,5.20
2019-04-04T05:19:09.070Z,5.10
2019-04-04T05:21:53.575Z,5.10
2019-04-04T05:24:38.462Z,5.10
2019-04-04T05:27:22.805Z,5.10
2019-04-04T05:30:08.511Z,5.10
2019-04-04T05:32:56.400Z,5.10
2019-04-04T05:35:40.211Z,5.20
2019-04-04T05:38:24.774Z,5.20
2019-04-04T05:41:09.293Z,5.20
2019-04-04T05:43:53.751Z,5.30
2019-04-04T05:46:38.419Z,5.40
2019-04-04T05:49:23.448Z,5.40
2019-04-04T05:52:09.189Z,5.40
2019-04-04T05:54:54.133Z,5.40
2019-04-04T05:57:38.672Z,5.40
2019-04-04T06:00:27.074Z,5.40
2019-04-04T06:03:10.229Z,5.40
2019-04-04T06:05:54.968Z,5.30
2019-04-04T06:08:43.070Z,5.40
2019-04-04T06:11:26.602Z,5.30
2019-04-04T06:14:11.146Z,5.30
2019-04-04T06:16:56.022Z,5.40
2019-04-04T06:19:40.897Z,5.40
2019-04-04T06:22:25.597Z,5.40
2019-04-04T06:25:10.353Z,5.50
2019-04-04T06:27:55.099Z,5.60
2019-04-04T06:30:43.521Z,5.50
2019-04-04T06:33:26.134Z,5.60
2019-04-04T06:36:10.767Z,5.70
2019-04-04T06:38:55.392Z,5.90
2019-04-04T06:41:40.190Z,6.00
2019-04-04T06:44:25.311Z,6.10
2019-04-04T06:47:10.366Z,6.10
2019-04-04T06:49:54.783Z,6.10
2019-04-04T06:52:39.288Z,6.20
2019-04-04T06:55:23.920Z,6.10
2019-04-04T06:58:09.494Z,6.00
2019-04-04T07:00:54.830Z,5.90
2019-04-04T07:03:39.580Z,6.00
2019-04-04T07:06:24.236Z,6.00
2019-04-04T07:09:08.909Z,6.00
2019-04-04T07:11:54.063Z,6.10
2019-04-04T07:14:45.467Z,6.30
2019-04-04T07:17:25.300Z,6.40
2019-04-04T07:20:11.292Z,6.50
2019-04-04T07:22:56.349Z,6.50
2019-04-04T07:25:41.180Z,6.50
2019-04-04T07:28:25.566Z,6.40
2019-04-04T07:31:10.287Z,6.40
2019-04-04T07:33:54.702Z,6.50
2019-04-04T07:36:39.303Z,6.50
2019-04-04T07:39:24.235Z,6.60
2019-04-04T07:42:08.867Z,6.70
2019-04-04T07:44:54.712Z,6.80
2019-04-04T07:47:40.142Z,6.80
2019-04-04T07:50:26.410Z,6.80
2019-04-04T07:53:11.499Z,6.80
2019-04-04T07:55:56.581Z,6.80
2019-04-04T07:58:41.592Z,6.80
2019-04-04T08:01:26.465Z,6.70
2019-04-04T08:04:11.143Z,6.70
2019-04-04T08:06:55.621Z,6.70
2019-04-04T08:09:40.570Z,6.70
2019-04-04T08:12:25.507Z,6.60
2019-04-04T08:15:10.321Z,6.70
2019-04-04T08:17:55.364Z,6.70
2019-04-04T08:20:40.202Z,6.80
2019-04-04T08:23:25.124Z,6.70
2019-04-04T08:26:10.165Z,6.70
2019-04-04T08:28:55.257Z,6.60
2019-04-04T08:31:39.902Z,6.70
2019-04-04T08:34:24.561Z,6.80
2019-04-04T08:37:29.296Z,6.80
2019-04-04T08:40:13.932Z,6.90
2019-04-04T08:42:59.059Z,7.00
2019-04-04T08:45:43.813Z,7.10
2019-04-04T08:48:28.863Z,7.10
2019-04-04T08:51:13.874Z,7.20
2019-04-04T08:53:58.475Z,7.20
2019-04-04T08:56:43.066Z,7.20
2019-04-04T08:59:28.062Z,7.20
2019-04-04T09:02:12.736Z,7.20
2019-04-04T09:04:57.631Z,7.10
2019-04-04T09:07:42.637Z,7.10
2019-04-04T09:10:27.126Z,7.10
2019-04-04T09:13:11.886Z,7.00
2019-04-04T09:15:56.942Z,7.00
2019-04-04T09:18:41.817Z,7.10
2019-04-04T09:21:26.396Z,7.10
2019-04-04T09:24:11.019Z,7.10
2019-04-04T09:26:55.435Z,7.20
2019-04-04T09:29:40.156Z,7.20
2019-04-04T09:32:24.723Z,7.20
2019-04-04T09:35:09.785Z,7.20
2019-04-04T09:37:54.891Z,7.20
2019-04-04T09:40:39.746Z,7.20
2019-04-04T09:43:24.855Z,7.10
2019-04-04T09:46:09.506Z,7.10
2019-04-04T09:48:54.319Z,7.10
2019-04-04T09:51:39.585Z,7.00
2019-04-04T09:54:24.546Z,7.00
2019-04-04T09:57:09.650Z,7.00
2019-04-04T09:59:54.642Z,7.00
2019-04-04T10:02:39.662Z,7.00
2019-04-04T10:05:24.426Z,6.90
2019-04-04T10:08:09.026Z,6.90
2019-04-04T10:10:53.515Z,6.90
2019-04-04T10:13:38.096Z,7.00
2019-04-04T10:16:22.825Z,7.10
2019-04-04T10:19:07.945Z,7.30
2019-04-04T10:21:52.975Z,7.20
2019-04-04T10:24:37.971Z,7.30
2019-04-04T10:27:22.605Z,7.30
2019-04-04T10:30:09.127Z,7.40
2019-04-04T10:32:53.956Z,7.50
2019-04-04T10:35:38.747Z,7.50
2019-04-04T10:38:23.364Z,7.60
2019-04-04T10:41:08.047Z,7.60
2019-04-04T10:43:53.160Z,7.50
2019-04-04T10:46:38.070Z,7.50
2019-04-04T10:49:22.833Z,7.50
2019-04-04T10:52:07.847Z,7.50
2019-04-04T10:54:52.476Z,7.50
2019-04-04T10:57:37.465Z,7.60
2019-04-04T11:00:22.331Z,7.50
2019-04-04T11:03:07.380Z,7.30
2019-04-04T11:05:52.350Z,7.30
2019-04-04T11:08:36.987Z,7.30
2019-04-04T11:11:22.038Z,7.20
2019-04-04T11:14:07.120Z,7.20
2019-04-04T11:16:52.322Z,7.30
2019-04-04T11:19:37.054Z,7.30
2019-04-04T11:22:22.085Z,7.40
2019-04-04T11:25:06.876Z,7.50
2019-04-04T11:27:51.821Z,7.50
2019-04-04T11:30:37.000Z,7.50
2019-04-04T11:33:22.008Z,7.60
2019-04-04T11:36:07.146Z,7.70
2019-04-04T11:38:51.719Z,7.80
2019-04-04T11:41:36.176Z,7.80
2019-04-04T11:44:20.947Z,7.70
2019-04-04T11:47:05.980Z,7.70
2019-04-04T11:49:51.064Z,7.80
2019-04-04T11:52:35.662Z,7.80
2019-04-04T11:55:20.355Z,7.70
2019-04-04T11:58:05.376Z,7.60
2019-04-04T12:00:52.285Z,7.60
2019-04-04T12:03:37.306Z,7.40
2019-04-04T12:06:22.572Z,7.40
2019-04-04T12:09:07.301Z,7.50
2019-04-04T12:11:52.286Z,7.60
2019-04-04T12:14:36.825Z,7.70
2019-04-04T12:17:21.524Z,7.70
2019-04-04T12:20:06.617Z,7.60
2019-04-04T12:22:51.563Z,7.70
2019-04-04T12:25:36.710Z,7.70
2019-04-04T12:28:21.021Z,7.80
2019-04-04T12:31:06.086Z,7.70
2019-04-04T12:33:50.891Z,7.70
2019-04-04T12:36:35.791Z,7.80
2019-04-04T12:39:20.806Z,7.70
2019-04-04T12:42:05.523Z,7.70
2019-04-04T12:44:50.435Z,7.70
2019-04-04T12:47:35.895Z,7.70
2019-04-04T12:50:20.549Z,7.70
2019-04-04T12:53:05.906Z,7.60
2019-04-04T12:55:50.776Z,7.60
2019-04-04T12:58:35.204Z,7.60
2019-04-04T13:01:21.367Z,7.60
2019-04-04T13:04:06.544Z,7.50
2019-04-04T13:06:51.590Z,7.50
2019-04-04T13:09:36.726Z,7.50
2019-04-04T13:12:21.826Z,7.60
2019-04-04T13:15:08.630Z,7.50
2019-04-04T13:17:53.381Z,7.60
2019-04-04T13:20:38.049Z,7.70
2019-04-04T13:23:23.059Z,7.80
2019-04-04T13:26:08.095Z,7.70
2019-04-04T13:28:53.362Z,7.70
2019-04-04T13:31:38.261Z,7.50
2019-04-04T13:34:23.342Z,7.40
2019-04-04T13:37:07.995Z,7.30
2019-04-04T13:39:52.618Z,7.20
2019-04-04T13:42:37.802Z,7.20
2019-04-04T13:45:25.164Z,7.10
2019-04-04T13:48:10.680Z,7.10
2019-04-04T13:50:56.169Z,7.10
2019-04-04T13:53:41.483Z,7.00
2019-04-04T13:56:29.067Z,7.10
2019-04-04T13:59:12.756Z,7.20
2019-04-04T14:01:57.556Z,7.20
2019-04-04T14:04:42.114Z,7.30
2019-04-04T14:07:27.350Z,7.30
2019-04-04T14:10:12.449Z,7.30
2019-04-04T14:12:57.444Z,7.30
2019-04-04T14:15:42.255Z,7.30
2019-04-04T14:18:39.061Z,7.20
2019-04-04T14:21:14.081Z,7.30
2019-04-04T14:24:12.081Z,7.30
2019-04-04T14:26:46.448Z,7.30
2019-04-04T14:29:31.448Z,7.20
2019-04-04T14:32:16.496Z,7.10
2019-04-04T14:35:01.687Z,7.10
2019-04-04T14:37:46.561Z,7.00
2019-04-04T14:40:31.937Z,7.00
2019-04-04T14:43:16.885Z,6.90
2019-04-04T14:46:01.854Z,6.90
2019-04-04T14:48:46.945Z,6.90
2019-04-04T14:51:31.529Z,6.90
2019-04-04T14:54:16.195Z,6.90
2019-04-04T14:57:00.666Z,6.90
2019-04-04T14:59:45.351Z,6.80
2019-04-04T15:02:29.961Z,6.90
2019-04-04T15:05:15.465Z,6.80
2019-04-04T15:08:01.145Z,6.90
2019-04-04T15:10:46.339Z,6.80
2019-04-04T15:13:31.355Z,6.70
2019-04-04T15:16:16.862Z,6.70
2019-04-04T15:19:01.495Z,6.70
2019-04-04T15:21:46.204Z,6.60
2019-04-04T15:24:31.287Z,6.60
2019-04-04T15:27:16.907Z,6.70
2019-04-04T15:30:01.905Z,6.60
2019-04-04T15:32:46.823Z,6.50
2019-04-04T15:35:31.310Z,6.50
2019-04-04T15:38:16.085Z,6.60
2019-04-04T15:41:01.220Z,6.60
2019-04-04T15:43:46.304Z,6.60
2019-04-04T15:46:31.314Z,6.70
2019-04-04T15:49:16.453Z,6.70
2019-04-04T15:52:01.651Z,6.70
2019-04-04T15:54:46.709Z,6.70
2019-04-04T15:57:31.450Z,6.70
2019-04-04T16:00:16.641Z,6.70
2019-04-04T16:03:01.670Z,6.60
2019-04-04T16:05:46.417Z,6.60
2019-04-04T16:08:31.216Z,6.70
2019-04-04T16:11:15.708Z,6.70
2019-04-04T16:14:00.896Z,6.70
2019-04-04T16:16:46.045Z,6.70
2019-04-04T16:19:30.934Z,6.60
2019-04-04T16:22:15.575Z,6.50
2019-04-04T16:25:00.430Z,6.50
2019-04-04T16:27:45.544Z,6.40
2019-04-04T16:30:30.859Z,6.40
2019-04-04T16:33:16.030Z,6.40
2019-04-04T16:36:01.451Z,6.50
2019-04-04T16:38:46.481Z,6.40
2019-04-04T16:41:31.494Z,6.40
2019-04-04T16:44:16.800Z,6.40
2019-04-04T16:47:01.823Z,6.30
2019-04-04T16:49:46.884Z,6.30
2019-04-04T16:52:32.049Z,6.30
2019-04-04T16:55:17.085Z,6.30
2019-04-04T16:58:02.416Z,6.40
2019-04-04T17:00:47.567Z,6.40
2019-04-04T17:03:34.357Z,6.40
2019-04-04T17:06:19.287Z,6.40
2019-04-04T17:09:05.824Z,6.40
2019-04-04T17:11:51.015Z,6.40
2019-04-04T17:14:35.989Z,6.40
2019-04-04T17:17:21.091Z,6.50
2019-04-04T17:20:06.890Z,6.50
2019-04-04T17:22:51.488Z,6.50
2019-04-04T17:25:36.812Z,6.40
2019-04-04T17:28:21.690Z,6.40
2019-04-04T17:31:08.412Z,6.40
2019-04-04T17:33:53.864Z,6.40
2019-04-04T17:36:38.639Z,6.40
2019-04-04T17:39:24.342Z,6.30
2019-04-04T17:42:09.587Z,6.20
2019-04-04T17:44:54.811Z,6.20
2019-04-04T17:47:39.818Z,6.20
2019-04-04T17:50:25.333Z,6.20
2019-04-04T17:53:10.277Z,6.30
2019-04-04T17:55:56.119Z,6.30
2019-04-04T17:58:41.173Z,6.30
2019-04-04T18:01:26.239Z,6.30
2019-04-04T18:04:11.130Z,6.20
2019-04-04T18:06:56.179Z,6.20
2019-04-04T18:09:40.840Z,6.20
2019-04-04T18:12:26.012Z,6.20
2019-04-04T18:15:11.585Z,6.20
2019-04-04T18:17:56.894Z,6.10
2019-04-04T18:20:41.680Z,6.10
2019-04-04T18:23:27.183Z,6.20
2019-04-04T18:26:12.280Z,6.10
2019-04-04T18:28:57.571Z,6.10
2019-04-04T18:31:42.484Z,6.10
2019-04-04T18:34:28.060Z,6.00
2019-04-04T18:37:12.994Z,6.00
2019-04-04T18:39:58.391Z,6.10
2019-04-04T18:42:53.178Z,6.10
2019-04-04T18:45:30.159Z,6.10
2019-04-04T18:48:14.924Z,6.10
2019-04-04T18:50:59.653Z,6.10
2019-04-04T18:53:44.748Z,6.10
2019-04-04T18:56:30.167Z,6.10
2019-04-04T18:59:15.071Z,6.10
2019-04-04T19:02:00.132Z,6.00
2019-04-04T19:04:45.370Z,6.00
2019-04-04T19:07:39.265Z,6.00
2019-04-04T19:10:17.994Z,6.00
2019-04-04T19:13:05.655Z,5.80
2019-04-04T19:15:49.680Z,5.90
2019-04-04T19:18:34.789Z,5.90
2019-04-04T19:21:19.673Z,6.00
2019-04-04T19:24:04.847Z,6.10
2019-04-04T19:26:49.785Z,6.10
2019-04-04T19:29:35.145Z,6.10
2019-04-04T19:32:20.025Z,6.10
2019-04-04T19:35:07.033Z,6.20
2019-04-04T19:37:59.911Z,6.20
2019-04-04T19:40:39.411Z,6.20
2019-04-04T19:43:24.449Z,6.20
2019-04-04T19:46:09.548Z,6.20
2019-04-04T19:48:54.507Z,6.30
2019-04-04T19:51:39.549Z,6.30
2019-04-04T19:54:24.568Z,6.30
2019-04-04T19:57:09.715Z,6.30
2019-04-04T19:59:54.884Z,6.30
2019-04-04T20:02:39.986Z,6.30
2019-04-04T20:05:25.292Z,6.30
2019-04-04T20:08:10.298Z,6.30
2019-04-04T20:10:55.277Z,6.30
2019-04-04T20:13:40.230Z,6.30
2019-04-04T20:16:25.599Z,6.30
2019-04-04T20:19:10.675Z,6.30
2019-04-04T20:21:56.559Z,6.30
2019-04-04T20:24:41.595Z,6.30
2019-04-04T20:27:26.495Z,6.20
2019-04-04T20:30:14.285Z,6.30
2019-04-04T20:32:58.550Z,6.30
2019-04-04T20:35:43.645Z,6.20
2019-04-04T20:38:28.883Z,6.20
2019-04-04T20:41:16.273Z,6.20
2019-04-04T20:44:00.310Z,6.30
2019-04-04T20:46:45.480Z,6.30
2019-04-04T20:49:30.373Z,6.40
2019-04-04T20:52:14.945Z,6.40
2019-04-04T20:54:59.719Z,6.30
2019-04-04T20:57:44.969Z,6.30
2019-04-04T21:00:29.948Z,6.30
2019-04-04T21:03:15.017Z,6.30
2019-04-04T21:06:00.143Z,6.30
2019-04-04T21:08:45.066Z,6.30
2019-04-04T21:11:29.611Z,6.40
2019-04-04T21:14:14.717Z,6.40
2019-04-04T21:16:59.818Z,6.40
2019-04-04T21:19:44.537Z,6.40
2019-04-04T21:22:29.208Z,6.40
2019-04-04T21:25:13.840Z,6.40
2019-04-04T21:27:58.892Z,6.40
2019-04-04T21:30:44.329Z,6.40
2019-04-04T21:33:29.284Z,6.40
2019-04-04T21:36:14.138Z,6.40
2019-04-04T21:38:59.223Z,6.40
2019-04-04T21:41:43.858Z,6.40
2019-04-04T21:44:29.066Z,6.40
2019-04-04T21:47:13.653Z,6.40
2019-04-04T21:49:58.685Z,6.40
2019-04-04T21:52:43.329Z,6.40
2019-04-04T21:55:28.125Z,6.40
2019-04-04T21:58:12.995Z,6.40
2019-04-04T22:00:57.892Z,6.40
2019-04-04T22:03:42.760Z,6.40
2019-04-04T22:06:27.758Z,6.40
2019-04-04T22:09:17.281Z,6.40
2019-04-04T22:12:02.695Z,6.50
2019-04-04T22:14:47.509Z,6.50
2019-04-04T22:17:32.882Z,6.50
2019-04-04T22:20:17.804Z,6.50
2019-04-04T22:23:02.849Z,6.50
2019-04-04T22:25:47.855Z,6.50
2019-04-04T22:28:32.942Z,6.50
2019-04-04T22:31:17.874Z,6.50
2019-04-04T22:34:02.353Z,6.50
2019-04-04T22:36:47.088Z,6.50
2019-04-04T22:39:32.168Z,6.50
2019-04-04T22:42:16.894Z,6.50
2019-04-04T22:45:04.138Z,6.50
2019-04-04T22:47:49.093Z,6.50
2019-04-04T22:50:34.185Z,6.40
2019-04-04T22:53:18.774Z,6.40
2019-04-04T22:56:03.610Z,6.40
2019-04-04T22:58:48.435Z,6.40
2019-04-04T23:01:33.731Z,6.40
2019-04-04T23:04:18.429Z,6.40
2019-04-04T23:07:03.382Z,6.40
2019-04-04T23:09:48.053Z,6.40
2019-04-04T23:12:33.017Z,6.40
2019-04-04T23:15:17.784Z,6.40
2019-04-04T23:18:02.411Z,6.40
2019-04-04T23:20:47.184Z,6.40
2019-04-04T23:23:31.736Z,6.40
2019-04-04T23:26:16.518Z,6.40
2019-04-04T23:29:01.628Z,6.40
2019-04-04T23:31:46.838Z,6.40
2019-04-04T23:34:31.633Z,6.30
2019-04-04T23:37:16.184Z,6.40
2019-04-04T23:40:00.726Z,6.30
2019-04-04T23:42:45.433Z,6.30
2019-04-04T23:45:29.961Z,6.30
2019-04-04T23:48:14.957Z,6.30
2019-04-04T23:50:59.517Z,6.30
2019-04-04T23:53:44.152Z,6.30
2019-04-04T23:56:28.872Z,6.30
2019-04-04T23:59:13.513Z,6.40
